Anchor Bay, California
Current Conditions -  °F | °C
As of 9:56 AM on Friday 24 Oct 2014 (Local Time) from KUKI Reporting Station
Overcast Overcast  
Wind Chill: 13°   Ceiling: 500
Heat Index: 13°   Visibility: 10mi
Dew Point: 12°   Wind: 7mph
Humidity: 93%   Direction: 130°SE
Pressure: 29.96"   Gusts: NA
Location:  38.8361°N, 123.43°W
Report Text: KUKI 241656Z AUTO 13006KT 10SM OVC005 13/12 A2996 RMK AO2 SLP140 T01330122
Loading
Personal Weather Stations






























Interactive Weather Map
Tropical Storm Tracking
New forecast layout! Learn more

10-Day Weather Forecast

Advertisements
Track Severe Weather on mobile